JAL1463 RJSN-RJNT
Flight info
| Callsign | JAL1463 |
|---|---|
| Flight time | 0h 30m |
| Altitude | 18000 |
| Route | TERAD Y45 IKUJI MEDIC |
| Aircraft | A359/H-SDE2E3GHIJ3J4J5LM1ORWXY/LB1D1 |
Departure
| Time | 2026-05-06 20:00 |
|---|---|
| Airport | Niigata Airport (RJSN) |
Arrival
| Time | 2026-05-06 20:30 |
|---|---|
| Airport | Toyama Kitokito Airport (RJNT) |
| Time | Latitude | Longitude | Altitude | Speed | Heading |
|---|---|---|---|---|---|
| 2026-05-06 19:43 | 37.95320 | 139.11319 | 18 ft | 0 kts | 182° |
| 2026-05-06 19:51 | 37.95333 | 139.11319 | 22 ft | 4 kts | 181° |
| 2026-05-06 19:51 | 37.95360 | 139.11319 | 20 ft | 4 kts | 177° |
| 2026-05-06 19:51 | 37.95387 | 139.11316 | 21 ft | 4 kts | 172° |
| 2026-05-06 19:51 | 37.95414 | 139.11310 | 20 ft | 4 kts | 165° |
| 2026-05-06 19:52 | 37.95439 | 139.11299 | 21 ft | 4 kts | 147° |
| 2026-05-06 19:52 | 37.95454 | 139.11279 | 22 ft | 3 kts | 95° |
| 2026-05-06 19:52 | 37.95454 | 139.11276 | 22 ft | 0 kts | 92° |
| 2026-05-06 19:54 | 37.95453 | 139.11279 | 21 ft | 3 kts | 103° |
| 2026-05-06 19:55 | 37.95440 | 139.11250 | 22 ft | 13 kts | 290° |
| 2026-05-06 19:55 | 37.95462 | 139.11105 | 18 ft | 20 kts | 275° |
| 2026-05-06 19:55 | 37.95470 | 139.10859 | 24 ft | 31 kts | 271° |
| 2026-05-06 19:55 | 37.95478 | 139.10590 | 23 ft | 31 kts | 272° |
| 2026-05-06 19:56 | 37.95489 | 139.10317 | 27 ft | 31 kts | 273° |
| 2026-05-06 19:56 | 37.95500 | 139.10033 | 27 ft | 32 kts | 272° |
| 2026-05-06 19:56 | 37.95509 | 139.09780 | 28 ft | 16 kts | 273° |
| 2026-05-06 19:56 | 37.95515 | 139.09643 | 33 ft | 15 kts | 272° |
| 2026-05-06 19:57 | 37.95543 | 139.09524 | 36 ft | 14 kts | 308° |
| 2026-05-06 19:57 | 37.95625 | 139.09505 | 38 ft | 10 kts | 13° |
| 2026-05-06 19:57 | 37.95678 | 139.09539 | 39 ft | 5 kts | 62° |
| 2026-05-06 19:57 | 37.95683 | 139.09585 | 41 ft | 7 kts | 86° |
| 2026-05-06 19:58 | 37.95682 | 139.09604 | 41 ft | 0 kts | 92° |
| 2026-05-06 19:59 | 37.95682 | 139.09618 | 40 ft | 4 kts | 93° |
| 2026-05-06 19:59 | 37.95679 | 139.09675 | 39 ft | 9 kts | 93° |
| 2026-05-06 19:59 | 37.95672 | 139.09873 | 36 ft | 58 kts | 92° |
| 2026-05-06 20:00 | 37.95637 | 139.10794 | 23 ft | 148 kts | 92° |
| 2026-05-06 20:00 | 37.95599 | 139.12087 | 857 ft | 149 kts | 93° |
| 2026-05-06 20:00 | 37.95575 | 139.13495 | 1422 ft | 177 kts | 92° |
| 2026-05-06 20:00 | 37.95551 | 139.15198 | 1763 ft | 208 kts | 91° |
| 2026-05-06 20:01 | 37.95524 | 139.17168 | 2208 ft | 233 kts | 91° |
| 2026-05-06 20:01 | 37.95495 | 139.19340 | 2661 ft | 260 kts | 91° |
| 2026-05-06 20:01 | 37.95798 | 139.21649 | 3319 ft | 271 kts | 64° |
| 2026-05-06 20:01 | 37.97005 | 139.23393 | 4237 ft | 270 kts | 30° |
| 2026-05-06 20:02 | 37.98772 | 139.24032 | 5111 ft | 267 kts | 355° |
| 2026-05-06 20:02 | 38.00570 | 139.23512 | 5978 ft | 266 kts | 330° |
| 2026-05-06 20:02 | 38.02091 | 139.22174 | 6851 ft | 268 kts | 314° |
| 2026-05-06 20:02 | 38.03245 | 139.20335 | 7783 ft | 267 kts | 296° |
| 2026-05-06 20:03 | 38.03823 | 139.18125 | 8774 ft | 265 kts | 275° |
| 2026-05-06 20:03 | 38.03940 | 139.15788 | 9804 ft | 267 kts | 270° |
| 2026-05-06 20:03 | 38.03978 | 139.13397 | 10567 ft | 279 kts | 269° |
| 2026-05-06 20:03 | 38.03788 | 139.10864 | 10948 ft | 300 kts | 255° |
| 2026-05-06 20:04 | 38.02797 | 139.08453 | 11352 ft | 320 kts | 231° |
| 2026-05-06 20:04 | 38.01231 | 139.06381 | 12055 ft | 330 kts | 225° |
| 2026-05-06 20:04 | 37.99566 | 139.04338 | 12851 ft | 336 kts | 225° |
| 2026-05-06 20:04 | 37.97876 | 139.02250 | 13628 ft | 342 kts | 226° |
| 2026-05-06 20:05 | 37.96163 | 139.00118 | 14329 ft | 348 kts | 226° |
| 2026-05-06 20:05 | 37.94435 | 138.97956 | 15041 ft | 352 kts | 226° |
| 2026-05-06 20:05 | 37.92683 | 138.95760 | 15779 ft | 356 kts | 226° |
| 2026-05-06 20:05 | 37.90918 | 138.93544 | 16516 ft | 360 kts | 226° |
| 2026-05-06 20:06 | 37.89129 | 138.91299 | 17266 ft | 364 kts | 227° |
| 2026-05-06 20:06 | 37.87327 | 138.89035 | 17817 ft | 366 kts | 227° |
| 2026-05-06 20:06 | 37.85599 | 138.86645 | 18035 ft | 372 kts | 231° |
| 2026-05-06 20:06 | 37.83933 | 138.84109 | 18059 ft | 381 kts | 232° |
| 2026-05-06 20:07 | 37.82241 | 138.81495 | 18056 ft | 383 kts | 232° |
| 2026-05-06 20:07 | 37.80550 | 138.78888 | 18056 ft | 384 kts | 232° |
| 2026-05-06 20:07 | 37.78855 | 138.76282 | 18057 ft | 384 kts | 232° |
| 2026-05-06 20:07 | 37.77158 | 138.73678 | 18062 ft | 384 kts | 232° |
| 2026-05-06 20:08 | 37.75460 | 138.71075 | 18060 ft | 384 kts | 232° |
| 2026-05-06 20:08 | 37.73763 | 138.68476 | 18054 ft | 384 kts | 232° |
| 2026-05-06 20:08 | 37.72065 | 138.65878 | 18064 ft | 384 kts | 232° |
| 2026-05-06 20:08 | 37.70366 | 138.63281 | 18064 ft | 383 kts | 232° |
| 2026-05-06 20:09 | 37.68665 | 138.60684 | 18065 ft | 383 kts | 232° |
| 2026-05-06 20:09 | 37.66990 | 138.58129 | 18066 ft | 383 kts | 232° |
| 2026-05-06 20:09 | 37.65266 | 138.55501 | 18061 ft | 383 kts | 232° |
| 2026-05-06 20:09 | 37.63567 | 138.52912 | 18067 ft | 383 kts | 232° |
| 2026-05-06 20:10 | 37.61889 | 138.50357 | 18061 ft | 383 kts | 232° |
| 2026-05-06 20:10 | 37.60167 | 138.47739 | 18067 ft | 383 kts | 232° |
| 2026-05-06 20:10 | 37.58534 | 138.45143 | 18062 ft | 382 kts | 234° |
| 2026-05-06 20:10 | 37.56969 | 138.42433 | 18065 ft | 382 kts | 236° |
| 2026-05-06 20:11 | 37.55443 | 138.39690 | 18062 ft | 382 kts | 237° |
| 2026-05-06 20:11 | 37.53928 | 138.36950 | 18064 ft | 382 kts | 237° |
| 2026-05-06 20:11 | 37.52399 | 138.34206 | 18063 ft | 382 kts | 236° |
| 2026-05-06 20:11 | 37.50860 | 138.31476 | 18066 ft | 382 kts | 236° |
| 2026-05-06 20:12 | 37.49315 | 138.28764 | 18058 ft | 383 kts | 236° |
| 2026-05-06 20:12 | 37.47758 | 138.26049 | 18067 ft | 383 kts | 236° |
| 2026-05-06 20:12 | 37.46195 | 138.23335 | 18057 ft | 383 kts | 235° |
| 2026-05-06 20:12 | 37.44624 | 138.20611 | 18063 ft | 384 kts | 235° |
| 2026-05-06 20:13 | 37.43055 | 138.17896 | 18063 ft | 384 kts | 235° |
| 2026-05-06 20:13 | 37.41480 | 138.15171 | 18064 ft | 384 kts | 235° |
| 2026-05-06 20:13 | 37.39910 | 138.12455 | 18064 ft | 384 kts | 235° |
| 2026-05-06 20:13 | 37.38342 | 138.09745 | 18059 ft | 384 kts | 235° |
| 2026-05-06 20:14 | 37.36768 | 138.07026 | 18063 ft | 384 kts | 235° |
| 2026-05-06 20:14 | 37.35196 | 138.04312 | 18064 ft | 384 kts | 235° |
| 2026-05-06 20:14 | 37.34153 | 138.02513 | 18064 ft | 384 kts | 235° |
| 2026-05-06 20:14 | 37.32559 | 137.99765 | 18064 ft | 384 kts | 235° |
| 2026-05-06 20:15 | 37.30984 | 137.97051 | 18061 ft | 384 kts | 235° |
| 2026-05-06 20:15 | 37.29432 | 137.94379 | 18061 ft | 384 kts | 235° |
| 2026-05-06 20:15 | 37.27325 | 137.90756 | 18061 ft | 384 kts | 235° |
| 2026-05-06 20:15 | 37.26261 | 137.88928 | 18062 ft | 384 kts | 235° |
| 2026-05-06 20:16 | 37.24718 | 137.86249 | 18064 ft | 384 kts | 236° |
| 2026-05-06 20:16 | 37.23212 | 137.83483 | 18059 ft | 384 kts | 237° |
| 2026-05-06 20:16 | 37.21742 | 137.80689 | 18058 ft | 384 kts | 238° |
| 2026-05-06 20:16 | 37.20282 | 137.77891 | 18058 ft | 384 kts | 238° |
| 2026-05-06 20:17 | 37.18817 | 137.75109 | 17891 ft | 379 kts | 237° |
| 2026-05-06 20:17 | 37.17318 | 137.72402 | 17015 ft | 380 kts | 236° |
| 2026-05-06 20:17 | 37.15749 | 137.69680 | 15920 ft | 389 kts | 234° |
| 2026-05-06 20:17 | 37.14141 | 137.66941 | 15006 ft | 392 kts | 234° |
| 2026-05-06 20:18 | 37.12521 | 137.64188 | 14225 ft | 391 kts | 234° |
| 2026-05-06 20:18 | 37.10917 | 137.61456 | 13497 ft | 387 kts | 234° |
| 2026-05-06 20:18 | 37.09341 | 137.58759 | 12787 ft | 381 kts | 234° |
| 2026-05-06 20:18 | 37.07791 | 137.56098 | 12125 ft | 375 kts | 234° |
| 2026-05-06 20:19 | 37.06274 | 137.53486 | 11486 ft | 369 kts | 234° |
| 2026-05-06 20:19 | 37.04781 | 137.50921 | 11097 ft | 356 kts | 234° |
| 2026-05-06 20:19 | 37.03192 | 137.48653 | 10964 ft | 338 kts | 227° |
| 2026-05-06 20:19 | 37.01586 | 137.46608 | 10836 ft | 321 kts | 226° |
| 2026-05-06 20:20 | 37.00047 | 137.44692 | 10713 ft | 305 kts | 226° |
| 2026-05-06 20:20 | 36.98575 | 137.42874 | 10584 ft | 290 kts | 226° |
| 2026-05-06 20:20 | 36.97169 | 137.41146 | 10460 ft | 277 kts | 226° |
| 2026-05-06 20:20 | 36.95824 | 137.39500 | 10271 ft | 266 kts | 226° |
| 2026-05-06 20:21 | 36.94514 | 137.37898 | 9971 ft | 262 kts | 226° |
| 2026-05-06 20:21 | 36.93198 | 137.36290 | 9631 ft | 268 kts | 226° |
| 2026-05-06 20:21 | 36.91860 | 137.34656 | 9299 ft | 271 kts | 225° |
| 2026-05-06 20:21 | 36.90506 | 137.33008 | 8954 ft | 270 kts | 225° |
| 2026-05-06 20:22 | 36.89160 | 137.31370 | 8620 ft | 269 kts | 225° |
| 2026-05-06 20:22 | 36.87824 | 137.29745 | 8294 ft | 268 kts | 225° |
| 2026-05-06 20:22 | 36.86509 | 137.28148 | 7964 ft | 267 kts | 224° |
| 2026-05-06 20:22 | 36.85160 | 137.26511 | 7627 ft | 266 kts | 224° |
| 2026-05-06 20:23 | 36.83826 | 137.24918 | 7270 ft | 267 kts | 221° |
| 2026-05-06 20:23 | 36.82388 | 137.23460 | 6950 ft | 266 kts | 217° |
| 2026-05-06 20:23 | 36.80909 | 137.22059 | 6627 ft | 267 kts | 217° |
| 2026-05-06 20:23 | 36.79427 | 137.20662 | 6291 ft | 267 kts | 217° |
| 2026-05-06 20:24 | 36.77951 | 137.19271 | 5899 ft | 265 kts | 217° |
| 2026-05-06 20:24 | 36.76494 | 137.17896 | 5209 ft | 265 kts | 216° |
| 2026-05-06 20:24 | 36.75005 | 137.16491 | 4457 ft | 268 kts | 216° |
| 2026-05-06 20:24 | 36.73525 | 137.15096 | 3719 ft | 267 kts | 217° |
| 2026-05-06 20:25 | 36.72052 | 137.13707 | 3174 ft | 267 kts | 217° |
| 2026-05-06 20:25 | 36.70616 | 137.12353 | 2957 ft | 243 kts | 217° |
| 2026-05-06 20:25 | 36.69326 | 137.11136 | 2559 ft | 234 kts | 217° |
| 2026-05-06 20:25 | 36.68018 | 137.09899 | 2223 ft | 236 kts | 217° |
| 2026-05-06 20:26 | 36.66671 | 137.08654 | 2279 ft | 252 kts | 215° |
| 2026-05-06 20:26 | 36.65110 | 137.07409 | 1878 ft | 281 kts | 207° |
| 2026-05-06 20:26 | 36.63227 | 137.06611 | 2127 ft | 273 kts | 189° |
| 2026-05-06 20:26 | 36.61434 | 137.06525 | 2409 ft | 251 kts | 176° |
| 2026-05-06 20:27 | 36.59680 | 137.07147 | 1938 ft | 273 kts | 151° |
| 2026-05-06 20:27 | 36.58342 | 137.08660 | 1703 ft | 252 kts | 124° |
| 2026-05-06 20:27 | 36.57680 | 137.10627 | 1593 ft | 245 kts | 101° |
| 2026-05-06 20:27 | 36.57726 | 137.12681 | 1315 ft | 230 kts | 77° |
| 2026-05-06 20:28 | 36.58297 | 137.14388 | 1086 ft | 199 kts | 62° |
| 2026-05-06 20:28 | 36.59031 | 137.15676 | 1010 ft | 170 kts | 50° |
| 2026-05-06 20:28 | 36.59839 | 137.16593 | 934 ft | 147 kts | 38° |
| 2026-05-06 20:28 | 36.60658 | 137.17212 | 818 ft | 131 kts | 29° |
| 2026-05-06 20:29 | 36.61484 | 137.17689 | 660 ft | 133 kts | 24° |
| 2026-05-06 20:29 | 36.62402 | 137.18012 | 419 ft | 139 kts | 10° |
| 2026-05-06 20:29 | 36.63325 | 137.18283 | 262 ft | 135 kts | 14° |
| 2026-05-06 20:29 | 36.64231 | 137.18563 | 101 ft | 129 kts | 12° |
| 2026-05-06 20:30 | 36.65033 | 137.18800 | 97 ft | 98 kts | 13° |
| 2026-05-06 20:30 | 36.65526 | 137.18944 | 100 ft | 27 kts | 12° |
| 2026-05-06 20:30 | 36.65645 | 137.19024 | 99 ft | 11 kts | 24° |
| 2026-05-06 20:31 | 36.65663 | 137.19006 | 101 ft | 8 kts | 292° |
| 2026-05-06 20:31 | 36.65633 | 137.18974 | 99 ft | 13 kts | 194° |
| 2026-05-06 20:31 | 36.65511 | 137.18941 | 100 ft | 24 kts | 194° |
| 2026-05-06 20:31 | 36.65259 | 137.18866 | 99 ft | 49 kts | 193° |
| 2026-05-06 20:32 | 36.64924 | 137.18767 | 96 ft | 45 kts | 193° |
| 2026-05-06 20:32 | 36.64653 | 137.18685 | 94 ft | 27 kts | 193° |
| 2026-05-06 20:32 | 36.64534 | 137.18722 | 100 ft | 18 kts | 119° |
| 2026-05-06 20:32 | 36.64504 | 137.18760 | 99 ft | 0 kts | 149° |
| 2026-05-06 20:33 | 36.64488 | 137.18764 | 99 ft | 2 kts | 168° |
| 2026-05-06 20:33 | 36.64461 | 137.18773 | 98 ft | 5 kts | 157° |
| 2026-05-06 20:33 | 36.64429 | 137.18811 | 99 ft | 6 kts | 129° |
| 2026-05-06 20:34 | 36.64420 | 137.18826 | 99 ft | 0 kts | 128° |
| 2026-05-06 20:34 | 36.64412 | 137.18839 | 99 ft | 3 kts | 127° |
| 2026-05-06 20:34 | 36.64407 | 137.18846 | 100 ft | 0 kts | 127° |